Time;durP1;ratioP1;P1;durP2;ratioP2;P2;SDS_P1;SDS_P2;PMS_P1;PMS_P2;Temp;Humidity;BMP_temperature;BMP_pressure;BME280_temperature;BME280_humidity;BME280_pressure;Samples;Min_cycle;Max_cycle;Signal;HPM_P1;HPM_P2
2024/01/29 00:01:05;;;;;;;75.30;33.80;;;;;;;-128.00;-1.00;-1.00;102965;1253;1004677;-78
2024/01/29 00:03:48;;;;;;;57.90;26.70;;;;;;;-128.00;-1.00;-1.00;102956;1253;1058502;-79
2024/01/29 00:06:14;;;;;;;50.30;26.70;;;;;;;-128.00;-1.00;-1.00;103003;1253;1004937;-78
2024/01/29 00:08:41;;;;;;;57.70;27.40;;;;;;;-128.00;-1.00;-1.00;103082;1257;1004115;-78
2024/01/29 00:11:08;;;;;;;58.30;31.00;;;;;;;-128.00;-1.00;-1.00;102989;1254;1005326;-79
2024/01/29 00:13:34;;;;;;;65.10;29.60;;;;;;;-128.00;-1.00;-1.00;103038;1253;1004453;-78
2024/01/29 00:16:01;;;;;;;57.40;30.00;;;;;;;-128.00;-1.00;-1.00;102995;1253;1004169;-78
2024/01/29 00:18:27;;;;;;;60.10;32.10;;;;;;;-128.00;-1.00;-1.00;102935;1253;1004883;-79
2024/01/29 00:20:57;;;;;;;59.70;30.80;;;;;;;-128.00;-1.00;-1.00;103077;1253;1004395;-79
2024/01/29 00:23:23;;;;;;;49.50;25.20;;;;;;;-128.00;-1.00;-1.00;103006;1253;1048047;-79
2024/01/29 00:25:50;;;;;;;47.20;24.20;;;;;;;-128.00;-1.00;-1.00;102974;1253;1004149;-78
2024/01/29 00:28:17;;;;;;;46.50;23.70;;;;;;;-128.00;-1.00;-1.00;102902;1254;1004184;-78
2024/01/29 00:30:43;;;;;;;48.40;22.70;;;;;;;-128.00;-1.00;-1.00;103020;1253;1003437;-79
2024/01/29 00:33:10;;;;;;;30.00;16.40;;;;;;;-128.00;-1.00;-1.00;102919;1253;1004716;-78
2024/01/29 00:35:37;;;;;;;53.00;24.80;;;;;;;-128.00;-1.00;-1.00;102989;1253;1005399;-78
2024/01/29 00:38:04;;;;;;;56.70;27.20;;;;;;;-128.00;-1.00;-1.00;102984;1254;1003697;-79
2024/01/29 00:40:32;;;;;;;55.20;26.30;;;;;;;-128.00;-1.00;-1.00;102929;1253;1004474;-79
2024/01/29 00:43:00;;;;;;;45.40;23.70;;;;;;;-128.00;-1.00;-1.00;103008;1252;1060321;-79
2024/01/29 00:45:27;;;;;;;48.50;26.70;;;;;;;-128.00;-1.00;-1.00;104576;1253;1003365;-78
2024/01/29 00:47:53;;;;;;;46.50;23.30;;;;;;;-128.00;-1.00;-1.00;102930;1253;1004607;-78
2024/01/29 00:50:20;;;;;;;48.40;25.70;;;;;;;-128.00;-1.00;-1.00;102996;1253;1004695;-78
2024/01/29 00:52:46;;;;;;;44.70;22.50;;;;;;;-128.00;-1.00;-1.00;102999;1253;1004928;-79
2024/01/29 00:55:13;;;;;;;42.90;21.30;;;;;;;-128.00;-1.00;-1.00;102971;1253;1005361;-79
2024/01/29 00:57:39;;;;;;;39.60;20.90;;;;;;;-128.00;-1.00;-1.00;102978;1253;1004203;-78
2024/01/29 01:00:07;;;;;;;43.10;20.10;;;;;;;-128.00;-1.00;-1.00;102966;1253;1004112;-78
2024/01/29 01:02:33;;;;;;;42.30;22.90;;;;;;;-128.00;-1.00;-1.00;102992;1253;1003876;-79
2024/01/29 01:05:00;;;;;;;38.70;20.80;;;;;;;-128.00;-1.00;-1.00;104828;1253;1003463;-78
2024/01/29 01:07:27;;;;;;;37.50;21.60;;;;;;;-128.00;-1.00;-1.00;105686;1256;1003384;-78
2024/01/29 01:09:53;;;;;;;39.40;20.80;;;;;;;-128.00;-1.00;-1.00;104710;1253;1004310;-78
2024/01/29 01:12:20;;;;;;;36.20;20.00;;;;;;;-128.00;-1.00;-1.00;102959;1254;1004479;-78
2024/01/29 01:14:46;;;;;;;52.50;26.30;;;;;;;-128.00;-1.00;-1.00;104201;1253;1004920;-79
2024/01/29 01:17:14;;;;;;;46.70;23.30;;;;;;;-128.00;-1.00;-1.00;103472;1254;1003503;-79
2024/01/29 01:19:40;;;;;;;46.30;25.40;;;;;;;-128.00;-1.00;-1.00;103413;1254;1005205;-79
2024/01/29 01:22:07;;;;;;;43.00;24.10;;;;;;;-128.00;-1.00;-1.00;102927;1259;1003956;-79
2024/01/29 01:24:34;;;;;;;45.00;21.60;;;;;;;-128.00;-1.00;-1.00;102933;1254;1005141;-78
2024/01/29 01:27:00;;;;;;;48.60;21.10;;;;;;;-128.00;-1.00;-1.00;102953;1253;1003844;-78
2024/01/29 01:29:27;;;;;;;40.10;20.30;;;;;;;-128.00;-1.00;-1.00;102970;1253;1004632;-78
2024/01/29 01:31:54;;;;;;;44.80;22.20;;;;;;;-128.00;-1.00;-1.00;102859;1255;1007560;-79
2024/01/29 01:34:20;;;;;;;43.70;24.50;;;;;;;-128.00;-1.00;-1.00;103112;1257;1004670;-79
2024/01/29 01:36:47;;;;;;;50.30;25.90;;;;;;;-128.00;-1.00;-1.00;102954;1253;1004839;-78
2024/01/29 01:39:13;;;;;;;51.00;27.00;;;;;;;-128.00;-1.00;-1.00;102991;1253;1005364;-78
2024/01/29 01:41:47;;;;;;;49.00;27.00;;;;;;;-128.00;-1.00;-1.00;102899;1254;1005011;-79
2024/01/29 01:44:13;;;;;;;42.70;23.50;;;;;;;-128.00;-1.00;-1.00;103819;1253;1061300;-78
2024/01/29 01:46:40;;;;;;;37.90;20.40;;;;;;;-128.00;-1.00;-1.00;102910;1253;1004183;-78
2024/01/29 01:49:06;;;;;;;34.20;18.50;;;;;;;-128.00;-1.00;-1.00;103029;1253;1005943;-79
2024/01/29 01:51:33;;;;;;;35.20;16.40;;;;;;;-128.00;-1.00;-1.00;102949;1253;1004553;-78
2024/01/29 01:53:59;;;;;;;37.20;19.30;;;;;;;-128.00;-1.00;-1.00;104119;1253;1003657;-79
2024/01/29 01:56:26;;;;;;;31.80;17.10;;;;;;;-128.00;-1.00;-1.00;103095;1256;1003833;-78
2024/01/29 01:58:53;;;;;;;39.20;19.60;;;;;;;-128.00;-1.00;-1.00;103365;1253;1004978;-79
2024/01/29 02:01:20;;;;;;;35.10;20.10;;;;;;;-128.00;-1.00;-1.00;103414;1253;1004737;-80
2024/01/29 02:03:46;;;;;;;43.10;22.50;;;;;;;-128.00;-1.00;-1.00;103214;1256;1003588;-78
2024/01/29 02:06:13;;;;;;;39.30;22.40;;;;;;;-128.00;-1.00;-1.00;102989;1253;1004858;-79
2024/01/29 02:08:40;;;;;;;40.50;19.80;;;;;;;-128.00;-1.00;-1.00;102989;1259;1005283;-79
2024/01/29 02:11:06;;;;;;;40.60;20.10;;;;;;;-128.00;-1.00;-1.00;102889;1253;1004805;-78
2024/01/29 02:13:33;;;;;;;37.20;20.60;;;;;;;-128.00;-1.00;-1.00;102947;1254;1003962;-78
2024/01/29 02:16:02;;;;;;;37.90;21.10;;;;;;;-128.00;-1.00;-1.00;102968;1259;1005026;-78
2024/01/29 02:18:29;;;;;;;40.40;21.60;;;;;;;-128.00;-1.00;-1.00;102942;1259;1062224;-78
2024/01/29 02:20:56;;;;;;;36.60;17.60;;;;;;;-128.00;-1.00;-1.00;103053;1259;1004873;-79
2024/01/29 02:23:23;;;;;;;38.90;19.20;;;;;;;-128.00;-1.00;-1.00;102992;1257;1004838;-79
2024/01/29 02:25:49;;;;;;;38.20;19.90;;;;;;;-128.00;-1.00;-1.00;102936;1257;1004966;-79
2024/01/29 02:28:16;;;;;;;40.50;22.00;;;;;;;-128.00;-1.00;-1.00;102937;1257;1004431;-78
2024/01/29 02:30:43;;;;;;;38.30;18.80;;;;;;;-128.00;-1.00;-1.00;102975;1253;1004664;-78
2024/01/29 02:33:09;;;;;;;36.00;21.80;;;;;;;-128.00;-1.00;-1.00;102952;1256;1004758;-79
2024/01/29 02:35:36;;;;;;;39.70;19.60;;;;;;;-128.00;-1.00;-1.00;102958;1253;1004648;-78
2024/01/29 02:38:03;;;;;;;35.40;19.00;;;;;;;-128.00;-1.00;-1.00;102934;1253;1005270;-79
2024/01/29 02:40:30;;;;;;;38.80;17.30;;;;;;;-128.00;-1.00;-1.00;102979;1256;1004806;-78
2024/01/29 02:42:57;;;;;;;32.60;16.20;;;;;;;-128.00;-1.00;-1.00;102960;1254;1005274;-78
2024/01/29 02:45:23;;;;;;;30.90;16.80;;;;;;;-128.00;-1.00;-1.00;102959;1256;1004304;-78
2024/01/29 02:47:50;;;;;;;32.90;16.30;;;;;;;-128.00;-1.00;-1.00;102943;1255;1003956;-78
2024/01/29 02:50:16;;;;;;;33.90;17.40;;;;;;;-128.00;-1.00;-1.00;105182;1253;1004906;-78
2024/01/29 02:52:43;;;;;;;32.10;15.90;;;;;;;-128.00;-1.00;-1.00;105681;1256;1003434;-79
2024/01/29 02:55:10;;;;;;;30.30;18.30;;;;;;;-128.00;-1.00;-1.00;105727;1253;1004781;-78
2024/01/29 02:57:36;;;;;;;34.80;17.10;;;;;;;-128.00;-1.00;-1.00;104332;1254;1003856;-78
2024/01/29 03:00:04;;;;;;;29.90;16.00;;;;;;;-128.00;-1.00;-1.00;102953;1253;1004497;-78
2024/01/29 03:02:31;;;;;;;32.10;16.80;;;;;;;-128.00;-1.00;-1.00;103010;1254;1004680;-78
2024/01/29 03:04:57;;;;;;;32.60;14.80;;;;;;;-128.00;-1.00;-1.00;103001;1253;1003468;-78
2024/01/29 03:07:24;;;;;;;30.90;15.50;;;;;;;-128.00;-1.00;-1.00;104009;1257;1004207;-78
2024/01/29 03:09:51;;;;;;;34.50;17.50;;;;;;;-128.00;-1.00;-1.00;102908;1259;1005326;-78
2024/01/29 03:12:17;;;;;;;35.20;16.20;;;;;;;-128.00;-1.00;-1.00;103034;1258;1005276;-78
2024/01/29 03:14:44;;;;;;;32.10;14.60;;;;;;;-128.00;-1.00;-1.00;103054;1252;1005251;-78
2024/01/29 03:17:11;;;;;;;30.50;16.50;;;;;;;-128.00;-1.00;-1.00;102980;1253;1004549;-79
2024/01/29 03:19:38;;;;;;;29.60;16.20;;;;;;;-128.00;-1.00;-1.00;103018;1254;1007117;-78
2024/01/29 03:22:04;;;;;;;34.70;16.30;;;;;;;-128.00;-1.00;-1.00;102954;1253;1005405;-78
2024/01/29 03:24:31;;;;;;;26.10;16.20;;;;;;;-128.00;-1.00;-1.00;102965;1257;1004640;-78
2024/01/29 03:26:57;;;;;;;33.20;15.50;;;;;;;-128.00;-1.00;-1.00;102970;1258;1004707;-78
2024/01/29 03:29:24;;;;;;;31.90;16.00;;;;;;;-128.00;-1.00;-1.00;102954;1253;1004845;-78
2024/01/29 03:31:50;;;;;;;33.00;17.00;;;;;;;-128.00;-1.00;-1.00;102972;1255;1005600;-78
2024/01/29 03:34:17;;;;;;;35.80;19.20;;;;;;;-128.00;-1.00;-1.00;102985;1256;1005004;-78
2024/01/29 03:36:45;;;;;;;43.40;18.80;;;;;;;-128.00;-1.00;-1.00;102946;1253;1005038;-78
2024/01/29 03:39:12;;;;;;;34.10;17.60;;;;;;;-128.00;-1.00;-1.00;105671;1254;1004766;-78
2024/01/29 03:41:38;;;;;;;37.90;16.80;;;;;;;-128.00;-1.00;-1.00;104945;1256;1003968;-78
2024/01/29 03:44:05;;;;;;;39.30;19.90;;;;;;;-128.00;-1.00;-1.00;102866;1260;1005143;-78
2024/01/29 03:46:32;;;;;;;39.10;18.90;;;;;;;-128.00;-1.00;-1.00;102960;1257;1005011;-78
2024/01/29 03:48:58;;;;;;;41.40;18.70;;;;;;;-128.00;-1.00;-1.00;102987;1256;1004313;-78
2024/01/29 03:51:25;;;;;;;46.80;20.00;;;;;;;-128.00;-1.00;-1.00;102940;1257;1004842;-79
2024/01/29 03:53:51;;;;;;;35.70;18.90;;;;;;;-128.00;-1.00;-1.00;102977;1254;1004652;-79
2024/01/29 03:56:18;;;;;;;40.70;18.40;;;;;;;-128.00;-1.00;-1.00;102959;1253;1004626;-79
2024/01/29 03:58:45;;;;;;;37.40;18.40;;;;;;;-128.00;-1.00;-1.00;103015;1256;1005014;-79
2024/01/29 04:01:11;;;;;;;38.60;18.90;;;;;;;-128.00;-1.00;-1.00;102962;1254;1004756;-78
2024/01/29 04:03:39;;;;;;;38.40;17.20;;;;;;;-128.00;-1.00;-1.00;102998;1255;1004306;-78
2024/01/29 04:06:06;;;;;;;35.90;18.00;;;;;;;-128.00;-1.00;-1.00;105622;1257;1003838;-79
2024/01/29 04:08:33;;;;;;;28.30;16.50;;;;;;;-128.00;-1.00;-1.00;103118;1257;1004428;-78
2024/01/29 04:11:00;;;;;;;34.40;16.60;;;;;;;-128.00;-1.00;-1.00;102984;1254;1005024;-79
2024/01/29 04:13:26;;;;;;;25.70;15.30;;;;;;;-128.00;-1.00;-1.00;102977;1255;1004202;-78
2024/01/29 04:15:53;;;;;;;37.50;17.00;;;;;;;-128.00;-1.00;-1.00;102971;1255;1003947;-79
2024/01/29 04:18:20;;;;;;;35.50;18.60;;;;;;;-128.00;-1.00;-1.00;102952;1253;1004684;-79
2024/01/29 04:20:48;;;;;;;31.60;15.90;;;;;;;-128.00;-1.00;-1.00;103060;1254;1004546;-79
2024/01/29 04:23:15;;;;;;;37.00;18.20;;;;;;;-128.00;-1.00;-1.00;102989;1254;1058726;-79
2024/01/29 04:25:41;;;;;;;40.20;17.10;;;;;;;-128.00;-1.00;-1.00;102994;1257;1004815;-78
2024/01/29 04:28:08;;;;;;;30.30;16.30;;;;;;;-128.00;-1.00;-1.00;104849;1254;1004270;-79
2024/01/29 04:30:35;;;;;;;37.30;21.60;;;;;;;-128.00;-1.00;-1.00;104183;1256;1004008;-79
2024/01/29 04:33:01;;;;;;;32.30;16.80;;;;;;;-128.00;-1.00;-1.00;102965;1253;1004200;-78
2024/01/29 04:35:28;;;;;;;36.10;17.70;;;;;;;-128.00;-1.00;-1.00;103001;1257;1004342;-79
2024/01/29 04:37:54;;;;;;;34.80;14.80;;;;;;;-128.00;-1.00;-1.00;102996;1254;1004212;-79
2024/01/29 04:40:22;;;;;;;33.60;19.50;;;;;;;-128.00;-1.00;-1.00;102984;1256;1004590;-78
2024/01/29 04:42:49;;;;;;;43.30;23.00;;;;;;;-128.00;-1.00;-1.00;102994;1257;1004159;-78
2024/01/29 04:45:16;;;;;;;35.60;18.00;;;;;;;-128.00;-1.00;-1.00;102979;1254;1004128;-78
2024/01/29 04:47:42;;;;;;;29.90;16.50;;;;;;;-128.00;-1.00;-1.00;102950;1257;1004985;-78
2024/01/29 04:50:09;;;;;;;30.50;16.20;;;;;;;-128.00;-1.00;-1.00;102929;1254;1005240;-78
2024/01/29 04:52:35;;;;;;;26.00;13.60;;;;;;;-128.00;-1.00;-1.00;102969;1253;1004280;-78
2024/01/29 04:55:02;;;;;;;33.30;17.20;;;;;;;-128.00;-1.00;-1.00;102957;1257;1003705;-78
2024/01/29 04:57:29;;;;;;;26.60;12.70;;;;;;;-128.00;-1.00;-1.00;102897;1257;1004955;-78
2024/01/29 04:59:56;;;;;;;35.10;14.00;;;;;;;-128.00;-1.00;-1.00;102875;1255;1004705;-78
2024/01/29 05:02:22;;;;;;;32.70;15.50;;;;;;;-128.00;-1.00;-1.00;102824;1254;1004738;-78
2024/01/29 05:04:50;;;;;;;21.70;10.50;;;;;;;-128.00;-1.00;-1.00;103889;1254;1004458;-78
2024/01/29 05:07:17;;;;;;;23.80;12.00;;;;;;;-128.00;-1.00;-1.00;105586;1257;1003928;-79
2024/01/29 05:09:44;;;;;;;32.30;18.20;;;;;;;-128.00;-1.00;-1.00;105037;1254;1004021;-78
2024/01/29 05:12:10;;;;;;;35.10;17.30;;;;;;;-128.00;-1.00;-1.00;102821;1259;1005153;-78
2024/01/29 05:14:37;;;;;;;29.80;17.20;;;;;;;-128.00;-1.00;-1.00;103791;1253;1004269;-79
2024/01/29 05:17:03;;;;;;;28.60;14.30;;;;;;;-128.00;-1.00;-1.00;103333;1254;1004488;-78
2024/01/29 05:19:30;;;;;;;33.40;17.80;;;;;;;-128.00;-1.00;-1.00;103063;1256;1004653;-79
2024/01/29 05:21:57;;;;;;;30.40;15.30;;;;;;;-128.00;-1.00;-1.00;103100;1254;1004564;-78
2024/01/29 05:24:23;;;;;;;29.40;13.90;;;;;;;-128.00;-1.00;-1.00;102925;1254;1004057;-79
2024/01/29 05:26:50;;;;;;;27.00;14.30;;;;;;;-128.00;-1.00;-1.00;102967;1253;1004380;-79
2024/01/29 05:29:16;;;;;;;27.20;14.60;;;;;;;-128.00;-1.00;-1.00;102918;1257;1004917;-78
2024/01/29 05:31:43;;;;;;;28.80;14.60;;;;;;;-128.00;-1.00;-1.00;103004;1254;1004796;-78
2024/01/29 05:34:09;;;;;;;28.70;15.00;;;;;;;-128.00;-1.00;-1.00;102971;1254;1004397;-78
2024/01/29 05:36:36;;;;;;;28.20;14.50;;;;;;;-128.00;-1.00;-1.00;102988;1253;1005377;-78
2024/01/29 05:39:04;;;;;;;28.90;14.70;;;;;;;-128.00;-1.00;-1.00;102962;1254;1004741;-78
2024/01/29 05:41:30;;;;;;;29.60;15.10;;;;;;;-128.00;-1.00;-1.00;102982;1254;1004857;-78
2024/01/29 05:43:57;;;;;;;36.20;19.20;;;;;;;-128.00;-1.00;-1.00;102980;1255;1005038;-78
2024/01/29 05:46:23;;;;;;;32.70;18.80;;;;;;;-128.00;-1.00;-1.00;102579;1253;1004265;-78
2024/01/29 05:48:50;;;;;;;26.10;15.20;;;;;;;-128.00;-1.00;-1.00;102966;1253;1004580;-78
2024/01/29 05:51:17;;;;;;;29.10;16.80;;;;;;;-128.00;-1.00;-1.00;102918;1254;1005290;-79
2024/01/29 05:53:44;;;;;;;25.90;15.20;;;;;;;-128.00;-1.00;-1.00;102983;1254;1003940;-78
2024/01/29 05:56:10;;;;;;;28.00;14.70;;;;;;;-128.00;-1.00;-1.00;102981;1254;1004719;-78
2024/01/29 05:58:37;;;;;;;30.40;14.40;;;;;;;-128.00;-1.00;-1.00;103043;1253;1004497;-79
2024/01/29 06:01:04;;;;;;;26.20;13.30;;;;;;;-128.00;-1.00;-1.00;102939;1254;1004951;-79
2024/01/29 06:03:30;;;;;;;29.00;14.50;;;;;;;-128.00;-1.00;-1.00;104159;1253;1005092;-79
2024/01/29 06:05:57;;;;;;;26.90;13.50;;;;;;;-128.00;-1.00;-1.00;105096;1253;1003877;-78
2024/01/29 06:08:23;;;;;;;31.80;15.10;;;;;;;-128.00;-1.00;-1.00;104995;1253;1004468;-79
2024/01/29 06:10:50;;;;;;;30.10;15.10;;;;;;;-128.00;-1.00;-1.00;104443;1253;1003473;-79
2024/01/29 06:13:16;;;;;;;23.60;13.60;;;;;;;-128.00;-1.00;-1.00;104186;1253;1004799;-79
2024/01/29 06:15:43;;;;;;;33.30;15.40;;;;;;;-128.00;-1.00;-1.00;105622;1253;1003911;-79
2024/01/29 06:18:09;;;;;;;31.40;16.40;;;;;;;-128.00;-1.00;-1.00;105600;1252;1003310;-79
2024/01/29 06:20:37;;;;;;;31.80;15.70;;;;;;;-128.00;-1.00;-1.00;105625;1254;1003636;-78
2024/01/29 06:23:03;;;;;;;24.70;13.60;;;;;;;-128.00;-1.00;-1.00;104224;1254;1004147;-78
2024/01/29 06:25:30;;;;;;;32.20;14.80;;;;;;;-128.00;-1.00;-1.00;103026;1254;1004781;-79
2024/01/29 06:27:56;;;;;;;25.70;12.40;;;;;;;-128.00;-1.00;-1.00;102949;1255;1004126;-78
2024/01/29 06:30:23;;;;;;;29.80;14.10;;;;;;;-128.00;-1.00;-1.00;102963;1257;1003738;-78
2024/01/29 06:32:49;;;;;;;27.60;13.80;;;;;;;-128.00;-1.00;-1.00;103048;1253;1005129;-79
2024/01/29 06:35:18;;;;;;;26.60;13.20;;;;;;;-128.00;-1.00;-1.00;102997;1254;1004485;-79
2024/01/29 06:37:45;;;;;;;28.70;14.40;;;;;;;-128.00;-1.00;-1.00;102875;1254;1058915;-78
2024/01/29 06:40:11;;;;;;;30.20;15.70;;;;;;;-128.00;-1.00;-1.00;102881;1254;1004829;-78
2024/01/29 06:42:38;;;;;;;38.30;22.00;;;;;;;-128.00;-1.00;-1.00;102895;1255;1004463;-78
2024/01/29 06:45:07;;;;;;;36.40;18.60;;;;;;;-128.00;-1.00;-1.00;102817;1260;1006271;-79
2024/01/29 06:47:34;;;;;;;33.70;16.30;;;;;;;-128.00;-1.00;-1.00;102981;1253;1058868;-78
2024/01/29 06:50:00;;;;;;;34.30;15.00;;;;;;;-128.00;-1.00;-1.00;103036;1254;1006350;-79
2024/01/29 06:52:27;;;;;;;32.00;15.70;;;;;;;-128.00;-1.00;-1.00;103984;1254;1005222;-79
2024/01/29 06:54:54;;;;;;;32.50;18.20;;;;;;;-128.00;-1.00;-1.00;105676;1253;1004505;-79
2024/01/29 06:57:21;;;;;;;31.60;17.40;;;;;;;-128.00;-1.00;-1.00;105564;1253;1004681;-79
2024/01/29 06:59:47;;;;;;;28.60;15.90;;;;;;;-128.00;-1.00;-1.00;104795;1254;1003831;-79
2024/01/29 07:02:14;;;;;;;37.00;16.20;;;;;;;-128.00;-1.00;-1.00;103764;1253;1004821;-79
2024/01/29 07:04:42;;;;;;;27.20;12.90;;;;;;;-128.00;-1.00;-1.00;105620;1254;1004323;-79
2024/01/29 07:07:09;;;;;;;27.70;13.40;;;;;;;-128.00;-1.00;-1.00;103139;1253;1004176;-78
2024/01/29 07:09:36;;;;;;;27.90;14.10;;;;;;;-128.00;-1.00;-1.00;103145;1254;1007250;-78
2024/01/29 07:12:04;;;;;;;29.40;15.90;;;;;;;-128.00;-1.00;-1.00;103177;1254;1004380;-79
2024/01/29 07:14:31;;;;;;;33.40;16.80;;;;;;;-128.00;-1.00;-1.00;103044;1254;1004821;-79
2024/01/29 07:16:57;;;;;;;28.00;15.10;;;;;;;-128.00;-1.00;-1.00;103175;1253;1003943;-79
2024/01/29 07:19:33;;;;;;;28.90;16.20;;;;;;;-128.00;-1.00;-1.00;103177;1254;1005261;-79
2024/01/29 07:22:04;;;;;;;28.80;14.40;;;;;;;-128.00;-1.00;-1.00;103134;1252;1063089;-79
2024/01/29 07:24:31;;;;;;;25.90;14.00;;;;;;;-128.00;-1.00;-1.00;103091;1254;1059349;-79
2024/01/29 07:27:01;;;;;;;25.80;13.70;;;;;;;-128.00;-1.00;-1.00;103420;1253;1004021;-79
2024/01/29 07:29:29;;;;;;;29.60;14.90;;;;;;;-128.00;-1.00;-1.00;104284;1253;1045840;-79
2024/01/29 07:31:56;;;;;;;27.60;14.80;;;;;;;-128.00;-1.00;-1.00;103572;1254;1049673;-79
2024/01/29 07:34:23;;;;;;;29.90;15.50;;;;;;;-128.00;-1.00;-1.00;103405;1254;1004643;-78
2024/01/29 07:36:50;;;;;;;26.70;14.80;;;;;;;-128.00;-1.00;-1.00;103308;1254;1005188;-78
2024/01/29 07:39:16;;;;;;;32.10;16.60;;;;;;;-128.00;-1.00;-1.00;103487;1257;1005163;-79
2024/01/29 07:41:43;;;;;;;25.00;12.50;;;;;;;-128.00;-1.00;-1.00;103485;1254;1004783;-78
2024/01/29 07:44:09;;;;;;;40.90;22.90;;;;;;;-128.00;-1.00;-1.00;103414;1254;1004278;-79
2024/01/29 07:46:36;;;;;;;64.00;37.30;;;;;;;-128.00;-1.00;-1.00;103943;1253;1004885;-79
2024/01/29 07:49:03;;;;;;;47.70;25.50;;;;;;;-128.00;-1.00;-1.00;105456;1253;1004096;-79
2024/01/29 07:51:30;;;;;;;167.90;65.30;;;;;;;-128.00;-1.00;-1.00;105534;1254;1005064;-78
2024/01/29 07:53:56;;;;;;;129.10;61.80;;;;;;;-128.00;-1.00;-1.00;105568;1253;1004291;-79
2024/01/29 07:56:23;;;;;;;157.60;96.20;;;;;;;-128.00;-1.00;-1.00;105523;1253;1004000;-78
2024/01/29 07:58:49;;;;;;;63.20;34.60;;;;;;;-128.00;-1.00;-1.00;105556;1253;1004070;-79
2024/01/29 08:01:16;;;;;;;55.60;28.10;;;;;;;-128.00;-1.00;-1.00;105576;1253;1003530;-79
2024/01/29 08:03:43;;;;;;;57.50;32.70;;;;;;;-128.00;-1.00;-1.00;105503;1253;1004513;-79
2024/01/29 08:06:10;;;;;;;160.30;89.90;;;;;;;-128.00;-1.00;-1.00;105518;1253;1004922;-80
2024/01/29 08:08:37;;;;;;;76.30;40.60;;;;;;;-128.00;-1.00;-1.00;105447;1256;1003851;-79
2024/01/29 08:11:03;;;;;;;58.20;29.10;;;;;;;-128.00;-1.00;-1.00;104672;1253;1004361;-78
2024/01/29 08:13:30;;;;;;;50.10;29.70;;;;;;;-128.00;-1.00;-1.00;103523;1253;1005136;-79
2024/01/29 08:15:56;;;;;;;37.40;21.50;;;;;;;-128.00;-1.00;-1.00;103483;1254;1005270;-78
2024/01/29 08:18:23;;;;;;;36.30;19.50;;;;;;;-128.00;-1.00;-1.00;103543;1253;1004556;-79
2024/01/29 08:20:49;;;;;;;40.50;23.50;;;;;;;-128.00;-1.00;-1.00;103408;1254;1004811;-79
2024/01/29 08:23:16;;;;;;;27.70;16.00;;;;;;;-128.00;-1.00;-1.00;103472;1253;1005089;-79
2024/01/29 08:25:43;;;;;;;39.00;19.70;;;;;;;-128.00;-1.00;-1.00;103651;1253;1004579;-78
2024/01/29 08:28:11;;;;;;;31.80;17.30;;;;;;;-128.00;-1.00;-1.00;103510;1254;1004955;-79
2024/01/29 08:30:38;;;;;;;31.30;18.70;;;;;;;-128.00;-1.00;-1.00;103483;1253;1004041;-79
2024/01/29 08:33:04;;;;;;;38.40;21.50;;;;;;;-128.00;-1.00;-1.00;103454;1253;1004841;-78
2024/01/29 08:35:31;;;;;;;26.20;16.40;;;;;;;-128.00;-1.00;-1.00;103441;1257;1005424;-79
2024/01/29 08:37:57;;;;;;;35.80;17.20;;;;;;;-128.00;-1.00;-1.00;103422;1254;1004230;-79
2024/01/29 08:40:24;;;;;;;29.00;14.10;;;;;;;-128.00;-1.00;-1.00;103347;1253;1003805;-79
2024/01/29 08:42:51;;;;;;;39.90;21.20;;;;;;;-128.00;-1.00;-1.00;103542;1256;1004902;-80
2024/01/29 08:45:18;;;;;;;29.10;15.70;;;;;;;-128.00;-1.00;-1.00;103444;1253;1005464;-79
2024/01/29 08:47:44;;;;;;;29.80;15.20;;;;;;;-128.00;-1.00;-1.00;103301;1253;1004232;-79
2024/01/29 08:50:11;;;;;;;35.40;21.50;;;;;;;-128.00;-1.00;-1.00;104702;1253;1004061;-79
2024/01/29 08:52:39;;;;;;;31.70;15.10;;;;;;;-128.00;-1.00;-1.00;105491;1253;1005140;-79
2024/01/29 08:55:07;;;;;;;33.90;17.30;;;;;;;-128.00;-1.00;-1.00;105536;1253;1004052;-80
2024/01/29 08:57:33;;;;;;;30.90;16.60;;;;;;;-128.00;-1.00;-1.00;105571;1253;1003343;-79
2024/01/29 09:00:00;;;;;;;29.20;16.10;;;;;;;-128.00;-1.00;-1.00;105535;1253;1004127;-79
2024/01/29 09:02:31;;;;;;;32.10;16.80;;;;;;;-128.00;-1.00;-1.00;105501;1253;1003593;-79
2024/01/29 09:04:58;;;;;;;29.60;15.80;;;;;;;-128.00;-1.00;-1.00;105577;1253;1059165;-79
2024/01/29 09:07:25;;;;;;;21.10;10.00;;;;;;;-128.00;-1.00;-1.00;105472;1253;1004366;-79
2024/01/29 09:09:52;;;;;;;26.30;15.80;;;;;;;-128.00;-1.00;-1.00;105546;1253;1003493;-79
2024/01/29 09:12:18;;;;;;;30.60;16.90;;;;;;;-128.00;-1.00;-1.00;103669;1253;1004517;-79
2024/01/29 09:14:45;;;;;;;29.90;17.40;;;;;;;-128.00;-1.00;-1.00;104959;1254;1004152;-79
2024/01/29 09:17:12;;;;;;;32.60;16.90;;;;;;;-128.00;-1.00;-1.00;105491;1252;1004817;-79
2024/01/29 09:19:38;;;;;;;38.90;19.90;;;;;;;-128.00;-1.00;-1.00;105504;1253;1004106;-79
2024/01/29 09:22:05;;;;;;;42.00;19.00;;;;;;;-128.00;-1.00;-1.00;103435;1253;1004630;-79
2024/01/29 09:24:31;;;;;;;31.00;16.60;;;;;;;-128.00;-1.00;-1.00;103313;1253;1005299;-78
2024/01/29 09:26:58;;;;;;;29.20;15.40;;;;;;;-128.00;-1.00;-1.00;103439;1253;1004768;-79
2024/01/29 09:29:25;;;;;;;19.90;11.90;;;;;;;-128.00;-1.00;-1.00;103979;1253;1004859;-79
2024/01/29 09:31:51;;;;;;;25.40;13.50;;;;;;;-128.00;-1.00;-1.00;105509;1253;1004037;-79
2024/01/29 09:34:20;;;;;;;24.40;12.50;;;;;;;-128.00;-1.00;-1.00;105523;1256;1005125;-79
2024/01/29 09:36:47;;;;;;;31.80;15.90;;;;;;;-128.00;-1.00;-1.00;105505;1256;1062239;-79
2024/01/29 09:39:13;;;;;;;24.00;13.50;;;;;;;-128.00;-1.00;-1.00;105548;1253;1003333;-79
2024/01/29 09:41:40;;;;;;;25.10;12.70;;;;;;;-128.00;-1.00;-1.00;103758;1254;1004494;-80
2024/01/29 09:44:07;;;;;;;28.50;14.40;;;;;;;-128.00;-1.00;-1.00;104012;1253;1004382;-79
2024/01/29 09:46:36;;;;;;;29.40;18.00;;;;;;;-128.00;-1.00;-1.00;105564;1253;1004374;-79
2024/01/29 09:49:03;;;;;;;29.00;16.60;;;;;;;-128.00;-1.00;-1.00;105492;1253;1060982;-79
2024/01/29 09:51:29;;;;;;;28.80;14.00;;;;;;;-128.00;-1.00;-1.00;104199;1253;1004618;-79
2024/01/29 09:53:56;;;;;;;24.90;14.60;;;;;;;-128.00;-1.00;-1.00;103379;1254;1004226;-79
2024/01/29 09:56:22;;;;;;;45.30;22.10;;;;;;;-128.00;-1.00;-1.00;103328;1253;1003794;-78
2024/01/29 09:58:49;;;;;;;50.60;23.90;;;;;;;-128.00;-1.00;-1.00;103537;1253;1005698;-79
2024/01/29 10:01:18;;;;;;;27.00;15.50;;;;;;;-128.00;-1.00;-1.00;103380;1254;1004357;-78
2024/01/29 10:03:45;;;;;;;28.10;13.60;;;;;;;-128.00;-1.00;-1.00;103555;1253;1058198;-80
2024/01/29 10:06:11;;;;;;;38.70;18.20;;;;;;;-128.00;-1.00;-1.00;103241;1253;1004853;-78
2024/01/29 10:08:38;;;;;;;23.20;13.00;;;;;;;-128.00;-1.00;-1.00;103320;1253;1004071;-79
2024/01/29 10:11:05;;;;;;;22.80;11.50;;;;;;;-128.00;-1.00;-1.00;103825;1253;1005409;-79
2024/01/29 10:13:32;;;;;;;27.30;11.90;;;;;;;-128.00;-1.00;-1.00;105512;1253;1004779;-79
2024/01/29 10:15:58;;;;;;;25.90;13.80;;;;;;;-128.00;-1.00;-1.00;105545;1252;1004190;-80
2024/01/29 10:18:25;;;;;;;18.60;8.50;;;;;;;-128.00;-1.00;-1.00;105512;1253;1003588;-80
2024/01/29 10:21:02;;;;;;;33.10;17.20;;;;;;;-128.00;-1.00;-1.00;105460;1253;1003545;-79
2024/01/29 10:23:29;;;;;;;33.10;17.10;;;;;;;-128.00;-1.00;-1.00;105542;1255;1047029;-79
2024/01/29 10:25:59;;;;;;;28.60;14.80;;;;;;;-128.00;-1.00;-1.00;105504;1252;1003873;-79
2024/01/29 10:28:27;;;;;;;41.20;21.20;;;;;;;-128.00;-1.00;-1.00;105523;1252;1058123;-79
2024/01/29 10:30:56;;;;;;;23.70;13.20;;;;;;;-128.00;-1.00;-1.00;105524;1252;1003603;-79
2024/01/29 10:33:23;;;;;;;25.50;13.10;;;;;;;-128.00;-1.00;-1.00;105520;1253;1044802;-80
2024/01/29 10:35:49;;;;;;;22.40;11.20;;;;;;;-128.00;-1.00;-1.00;105468;1253;1004439;-80
2024/01/29 10:38:21;;;;;;;16.40;9.10;;;;;;;-128.00;-1.00;-1.00;105510;1254;1004672;-80
2024/01/29 10:40:49;;;;;;;21.40;12.00;;;;;;;-128.00;-1.00;-1.00;105556;1252;1058763;-80
2024/01/29 10:43:19;;;;;;;14.90;7.10;;;;;;;-128.00;-1.00;-1.00;105569;1253;1003855;-80
2024/01/29 10:45:48;;;;;;;27.10;15.00;;;;;;;-128.00;-1.00;-1.00;104866;1252;1046588;-79
2024/01/29 10:48:23;;;;;;;19.00;11.20;;;;;;;-128.00;-1.00;-1.00;104551;1253;1047488;-80
2024/01/29 10:50:50;;;;;;;23.30;11.20;;;;;;;-128.00;-1.00;-1.00;103182;1257;1061082;-80
2024/01/29 10:53:17;;;;;;;19.10;10.70;;;;;;;-128.00;-1.00;-1.00;103457;1253;1005527;-80
2024/01/29 10:55:44;;;;;;;20.70;10.60;;;;;;;-128.00;-1.00;-1.00;105590;1253;1003796;-80
2024/01/29 10:58:12;;;;;;;31.90;15.70;;;;;;;-128.00;-1.00;-1.00;104334;1253;1003948;-79
2024/01/29 11:00:43;;;;;;;17.50;9.80;;;;;;;-128.00;-1.00;-1.00;103592;1253;1004066;-80